Time;durP1;ratioP1;P1;durP2;ratioP2;P2;SDS_P1;SDS_P2;PMS_P1;PMS_P2;Temp;Humidity;BMP_temperature;BMP_pressure;BME280_temperature;BME280_humidity;BME280_pressure;Samples;Min_cycle;Max_cycle;Signal;HPM_P1;HPM_P2
2022/03/22 00:01:51;;;;;;;8.33;3.63;;;8.90;99.90;;;;;;5088282;28;20230;-76
2022/03/22 00:04:17;;;;;;;2.43;2.30;;;8.90;99.90;;;;;;5095382;28;20696;-77
2022/03/22 00:06:43;;;;;;;7.80;3.20;;;8.90;99.90;;;;;;5077423;28;20182;-76
2022/03/22 00:09:09;;;;;;;5.03;3.63;;;8.80;99.90;;;;;;5092919;28;20199;-76
2022/03/22 00:11:35;;;;;;;5.77;4.57;;;8.80;99.90;;;;;;5086296;28;20822;-76
2022/03/22 00:14:01;;;;;;;5.93;3.80;;;8.60;99.90;;;;;;5082307;28;20172;-76
2022/03/22 00:16:26;;;;;;;3.03;2.83;;;8.60;99.90;;;;;;5090818;28;20207;-75
2022/03/22 00:18:52;;;;;;;3.40;3.03;;;8.50;99.90;;;;;;5093026;28;20187;-75
2022/03/22 00:21:19;;;;;;;2.73;2.53;;;8.50;99.90;;;;;;5092551;28;20200;-77
2022/03/22 00:23:46;;;;;;;2.37;2.17;;;8.50;99.90;;;;;;5092737;28;20656;-74
2022/03/22 00:26:12;;;;;;;12.43;3.93;;;8.60;99.90;;;;;;5092578;28;20186;-75
2022/03/22 00:28:38;;;;;;;2.50;2.27;;;8.50;99.90;;;;;;5091206;28;20199;-75
2022/03/22 00:31:04;;;;;;;4.17;3.73;;;8.40;99.90;;;;;;5093236;28;20488;-77
2022/03/22 00:33:30;;;;;;;5.33;3.23;;;8.30;99.90;;;;;;5095139;28;20731;-75
2022/03/22 00:35:56;;;;;;;3.03;1.87;;;8.20;99.90;;;;;;5092662;28;20182;-75
2022/03/22 00:38:21;;;;;;;3.07;2.87;;;8.10;99.90;;;;;;5092740;28;20176;-76
2022/03/22 00:40:48;;;;;;;2.83;2.70;;;8.00;99.90;;;;;;5078051;28;20196;-76
2022/03/22 00:43:14;;;;;;;1.87;1.63;;;7.90;99.90;;;;;;5083513;28;20176;-77
2022/03/22 00:45:40;;;;;;;2.63;2.53;;;7.90;99.90;;;;;;5092227;28;20182;-76
2022/03/22 00:48:12;;;;;;;5.57;4.17;;;7.90;99.90;;;;;;5092558;28;20176;-77
2022/03/22 00:50:44;;;;;;;4.67;3.33;;;7.80;99.90;;;;;;5092353;28;20207;-77
2022/03/22 00:53:12;;;;;;;5.67;3.30;;;7.80;99.90;;;;;;5091829;28;20172;-77
2022/03/22 00:55:40;;;;;;;6.60;2.43;;;7.80;99.90;;;;;;5092100;28;20164;-75
2022/03/22 00:58:05;;;;;;;2.57;2.40;;;7.90;99.90;;;;;;5092080;28;20183;-76
2022/03/22 01:00:31;;;;;;;6.07;4.07;;;7.80;99.90;;;;;;5091982;28;20191;-76
2022/03/22 01:02:58;;;;;;;2.27;1.97;;;7.80;99.90;;;;;;5091870;28;20178;-75
2022/03/22 01:05:25;;;;;;;1.67;1.67;;;7.80;99.90;;;;;;5083966;28;20172;-76
2022/03/22 01:07:54;;;;;;;1.40;1.40;;;7.80;99.90;;;;;;5084531;28;20642;-76
2022/03/22 01:10:22;;;;;;;2.13;1.97;;;7.70;99.90;;;;;;5091736;28;20211;-76
2022/03/22 01:12:48;;;;;;;3.53;2.83;;;7.70;99.90;;;;;;5072617;28;20174;-76
2022/03/22 01:15:18;;;;;;;2.77;2.57;;;7.70;99.90;;;;;;5090642;28;20192;-76
2022/03/22 01:17:45;;;;;;;1.80;1.70;;;7.70;99.90;;;;;;5090502;28;20179;-76
2022/03/22 01:20:11;;;;;;;6.03;4.23;;;7.70;99.90;;;;;;5091817;28;20236;-76
2022/03/22 01:22:42;;;;;;;2.00;1.90;;;7.60;99.90;;;;;;5091501;28;20678;-75
2022/03/22 01:25:15;;;;;;;2.43;2.23;;;7.60;99.90;;;;;;5091476;28;20168;-76
2022/03/22 01:27:42;;;;;;;2.47;2.27;;;7.60;99.90;;;;;;5091239;28;20217;-75
2022/03/22 01:30:10;;;;;;;1.53;1.43;;;7.60;99.90;;;;;;5091336;28;20226;-75
2022/03/22 01:32:36;;;;;;;2.13;2.03;;;7.60;99.90;;;;;;5091636;28;20176;-76
2022/03/22 01:35:08;;;;;;;4.57;3.07;;;7.50;99.90;;;;;;5090487;28;20184;-75
2022/03/22 01:37:33;;;;;;;3.70;2.93;;;7.50;99.90;;;;;;5091470;28;20174;-76
2022/03/22 01:39:59;;;;;;;3.33;3.10;;;7.50;99.90;;;;;;5090195;28;20578;-76
2022/03/22 01:42:25;;;;;;;5.00;3.33;;;7.50;99.90;;;;;;5089831;28;20175;-75
2022/03/22 01:44:51;;;;;;;3.67;3.40;;;7.50;99.90;;;;;;5091642;28;20691;-75
2022/03/22 01:47:19;;;;;;;3.50;3.00;;;7.50;99.90;;;;;;5091562;28;20187;-77
2022/03/22 01:49:50;;;;;;;3.13;2.27;;;7.50;99.90;;;;;;5091415;28;20720;-76
2022/03/22 01:52:19;;;;;;;7.20;2.30;;;7.50;99.90;;;;;;5091229;28;20175;-76
2022/03/22 01:54:46;;;;;;;3.33;3.03;;;7.50;99.90;;;;;;5091665;28;20525;-75
2022/03/22 01:57:11;;;;;;;6.47;3.50;;;7.50;99.90;;;;;;5091647;28;20547;-76
2022/03/22 01:59:37;;;;;;;3.00;2.80;;;7.50;99.90;;;;;;5091533;28;20205;-75
2022/03/22 02:07:36;;;;;;;3.30;2.30;;;7.50;99.90;;;;;;5093551;28;20182;-76
2022/03/22 02:10:02;;;;;;;3.07;2.83;;;7.50;99.90;;;;;;5102928;28;20210;-76
2022/03/22 02:12:28;;;;;;;3.13;2.13;;;7.50;99.90;;;;;;5078616;28;20173;-76
2022/03/22 02:14:53;;;;;;;1.57;1.57;;;7.50;99.90;;;;;;5089667;28;20245;-76
2022/03/22 02:17:19;;;;;;;3.83;2.37;;;7.50;99.90;;;;;;5090655;28;20304;-76
2022/03/22 02:19:47;;;;;;;4.97;3.77;;;7.50;99.90;;;;;;5092196;28;20199;-76
2022/03/22 02:22:17;;;;;;;4.63;4.30;;;7.40;99.90;;;;;;5092075;28;20179;-76
2022/03/22 02:24:43;;;;;;;8.13;5.50;;;7.30;99.90;;;;;;5091572;28;20187;-76
2022/03/22 02:27:09;;;;;;;4.70;2.77;;;7.20;99.90;;;;;;5091387;28;20321;-76
2022/03/22 02:29:35;;;;;;;2.70;2.60;;;7.10;99.90;;;;;;5089564;28;20223;-75
2022/03/22 02:32:02;;;;;;;2.77;2.57;;;7.10;99.90;;;;;;5091358;28;20240;-75
2022/03/22 02:34:28;;;;;;;6.10;3.63;;;6.90;99.90;;;;;;5092611;28;20190;-77
2022/03/22 02:36:53;;;;;;;3.10;1.47;;;6.90;99.90;;;;;;5091612;28;20552;-76
2022/03/22 02:39:19;;;;;;;2.77;2.53;;;6.90;99.90;;;;;;5093544;28;20183;-76
2022/03/22 02:41:51;;;;;;;2.47;2.37;;;6.80;99.90;;;;;;5094432;28;20175;-75
2022/03/22 02:44:17;;;;;;;4.00;3.73;;;6.70;99.90;;;;;;5093508;28;20187;-75
2022/03/22 02:46:42;;;;;;;5.13;3.73;;;6.70;99.90;;;;;;5094926;28;20789;-75
2022/03/22 02:49:08;;;;;;;3.13;2.73;;;6.70;99.90;;;;;;5093467;28;20331;-76
2022/03/22 02:51:34;;;;;;;2.33;2.13;;;6.70;99.90;;;;;;5094507;28;20207;-75
2022/03/22 02:53:59;;;;;;;4.83;4.43;;;6.70;99.90;;;;;;5094097;28;20167;-76
2022/03/22 02:56:25;;;;;;;5.10;3.70;;;6.70;99.90;;;;;;5094506;28;20638;-75
2022/03/22 02:58:50;;;;;;;4.07;3.83;;;6.60;99.90;;;;;;5094649;28;20188;-76
2022/03/22 03:01:16;;;;;;;2.47;2.37;;;6.70;99.90;;;;;;5094366;28;20238;-76
2022/03/22 03:03:42;;;;;;;7.03;4.57;;;6.60;99.90;;;;;;5094154;28;20249;-76
2022/03/22 03:06:08;;;;;;;3.97;2.23;;;6.60;99.90;;;;;;5079131;28;20570;-76
2022/03/22 03:08:33;;;;;;;2.57;2.37;;;6.60;99.90;;;;;;5093004;28;20180;-76
2022/03/22 03:10:59;;;;;;;3.37;2.13;;;6.70;99.90;;;;;;5092895;28;20240;-77
2022/03/22 03:13:24;;;;;;;3.53;2.80;;;6.60;99.90;;;;;;5079089;28;20182;-76
2022/03/22 03:15:50;;;;;;;1.87;1.37;;;6.60;99.90;;;;;;5094403;28;20585;-76
2022/03/22 03:18:19;;;;;;;3.50;2.53;;;6.60;99.90;;;;;;5092625;28;20206;-75
2022/03/22 03:20:45;;;;;;;2.50;2.40;;;6.60;99.90;;;;;;5094485;28;20199;-76
2022/03/22 03:23:11;;;;;;;2.60;2.40;;;6.60;99.90;;;;;;5094090;28;20849;-76
2022/03/22 03:25:37;;;;;;;2.77;2.50;;;6.50;99.90;;;;;;5094001;28;20546;-75
2022/03/22 03:28:03;;;;;;;1.83;1.73;;;6.50;99.90;;;;;;5093953;28;20172;-75
2022/03/22 03:30:29;;;;;;;2.17;2.00;;;6.50;99.90;;;;;;5093600;28;20702;-76
2022/03/22 03:32:55;;;;;;;2.20;2.10;;;6.50;99.90;;;;;;5093409;28;20196;-76
2022/03/22 03:35:21;;;;;;;2.40;2.20;;;6.50;99.90;;;;;;5094064;28;20615;-76
2022/03/22 03:37:46;;;;;;;2.67;2.10;;;6.50;99.90;;;;;;5093745;28;20171;-77
2022/03/22 03:40:12;;;;;;;4.90;3.33;;;6.50;99.90;;;;;;5093591;28;20707;-76
2022/03/22 03:42:42;;;;;;;6.53;3.73;;;6.50;99.90;;;;;;5093386;28;20184;-76
2022/03/22 03:47:55;;;;;;;2.90;2.70;;;6.50;99.90;;;;;;5093605;28;20258;-76
2022/03/22 03:50:21;;;;;;;3.23;2.90;;;6.50;99.90;;;;;;5092633;28;20269;-76
2022/03/22 03:52:47;;;;;;;2.43;2.23;;;6.30;99.90;;;;;;5093045;28;20780;-75
2022/03/22 03:55:13;;;;;;;4.33;2.33;;;6.20;99.90;;;;;;5092719;28;20180;-76
2022/03/22 03:57:38;;;;;;;23.10;5.77;;;6.10;99.90;;;;;;5092059;28;20180;-76
2022/03/22 04:00:07;;;;;;;3.47;3.20;;;6.10;99.90;;;;;;5093188;28;20205;-75
2022/03/22 04:02:32;;;;;;;4.33;3.90;;;6.00;99.90;;;;;;5091601;28;20187;-75
2022/03/22 04:04:58;;;;;;;2.57;1.87;;;6.00;99.90;;;;;;5088644;28;20600;-76
2022/03/22 04:07:25;;;;;;;10.03;4.47;;;6.10;99.90;;;;;;5081984;28;20175;-76
2022/03/22 04:09:52;;;;;;;6.13;3.87;;;6.10;99.90;;;;;;5092656;28;20207;-76
2022/03/22 04:12:19;;;;;;;3.87;3.60;;;6.10;99.90;;;;;;5080576;28;20208;-77
2022/03/22 04:14:51;;;;;;;7.97;2.97;;;5.80;99.90;;;;;;5088925;28;20182;-77
2022/03/22 04:17:17;;;;;;;11.33;4.57;;;5.70;99.90;;;;;;5091627;28;20547;-77
2022/03/22 04:19:43;;;;;;;6.43;3.73;;;5.80;99.90;;;;;;5091573;28;20203;-78
2022/03/22 04:22:09;;;;;;;2.17;2.07;;;5.80;99.90;;;;;;5092676;28;20845;-77
2022/03/22 04:24:35;;;;;;;7.87;2.97;;;5.80;99.90;;;;;;5092860;28;20268;-77
2022/03/22 04:32:41;;;;;;;2.73;2.43;;;5.80;99.90;;;;;;5092870;28;20661;-76
2022/03/22 04:35:08;;;;;;;3.17;2.80;;;5.80;99.90;;;;;;5092994;28;20179;-77
2022/03/22 04:37:33;;;;;;;2.60;1.47;;;5.70;99.90;;;;;;5076290;28;20173;-76
2022/03/22 04:40:00;;;;;;;6.10;5.47;;;5.70;99.90;;;;;;5082449;28;20210;-76
2022/03/22 04:42:26;;;;;;;5.30;4.90;;;5.60;99.90;;;;;;5076021;28;20622;-76
2022/03/22 04:44:51;;;;;;;1.33;1.33;;;5.40;99.90;;;;;;5080931;28;20266;-76
2022/03/22 04:47:17;;;;;;;4.27;2.43;;;5.30;99.90;;;;;;5092470;28;20178;-77
2022/03/22 04:49:42;;;;;;;5.60;4.57;;;5.30;99.90;;;;;;5092059;28;20203;-77
2022/03/22 04:57:36;;;;;;;1.20;1.10;;;5.00;99.90;;;;;;5092154;28;20175;-75
2022/03/22 05:00:03;;;;;;;1.30;1.23;;;5.10;99.90;;;;;;5092133;28;20203;-76
2022/03/22 05:02:29;;;;;;;3.00;1.20;;;5.10;99.90;;;;;;5091854;28;20563;-75
2022/03/22 05:04:54;;;;;;;3.67;3.37;;;5.10;99.90;;;;;;5087742;28;20188;-76
2022/03/22 05:07:20;;;;;;;5.30;3.27;;;5.20;99.90;;;;;;5080278;28;20183;-77
2022/03/22 05:09:46;;;;;;;2.90;1.10;;;5.30;99.90;;;;;;5091906;28;20207;-76
2022/03/22 05:12:13;;;;;;;3.80;3.50;;;5.30;99.90;;;;;;5080358;28;20240;-76
2022/03/22 05:14:39;;;;;;;2.93;2.37;;;5.30;99.90;;;;;;5085937;28;20171;-77
2022/03/22 05:17:05;;;;;;;2.13;2.03;;;5.30;99.90;;;;;;5090490;28;20545;-76
2022/03/22 05:19:30;;;;;;;5.30;2.20;;;5.40;99.90;;;;;;5091791;28;20191;-75
2022/03/22 05:21:56;;;;;;;2.10;2.00;;;5.50;99.90;;;;;;5092048;28;20172;-76
2022/03/22 05:24:21;;;;;;;6.77;2.80;;;5.50;99.90;;;;;;5091724;28;20179;-77
2022/03/22 05:26:47;;;;;;;1.07;1.07;;;5.50;99.90;;;;;;5091707;28;20179;-77
2022/03/22 05:29:13;;;;;;;4.40;3.03;;;5.50;99.90;;;;;;5091633;28;20268;-76
2022/03/22 05:31:39;;;;;;;2.57;2.47;;;5.40;99.90;;;;;;5092739;28;20201;-81
2022/03/22 05:34:06;;;;;;;4.77;4.40;;;5.40;99.90;;;;;;5095731;28;20332;-76
2022/03/22 05:36:31;;;;;;;1.83;1.73;;;5.30;99.90;;;;;;5091560;28;20202;-75
2022/03/22 05:38:57;;;;;;;4.17;2.43;;;5.30;99.90;;;;;;5091925;28;20207;-75
2022/03/22 05:41:23;;;;;;;1.30;1.20;;;5.40;99.90;;;;;;5091968;28;20199;-75
2022/03/22 05:43:48;;;;;;;2.43;2.27;;;5.40;99.90;;;;;;5089603;28;20184;-74
2022/03/22 05:46:16;;;;;;;3.03;2.83;;;5.40;99.90;;;;;;5089560;28;20187;-77
2022/03/22 05:48:43;;;;;;;2.13;2.03;;;5.40;99.90;;;;;;5071101;28;20196;-77
2022/03/22 05:51:09;;;;;;;2.67;1.03;;;5.30;99.90;;;;;;5079273;28;20192;-76
2022/03/22 05:53:34;;;;;;;8.30;5.10;;;5.20;99.90;;;;;;5075884;28;20671;-77
2022/03/22 05:56:00;;;;;;;3.83;3.57;;;5.10;99.90;;;;;;5078949;28;20172;-76
2022/03/22 05:58:26;;;;;;;1.20;1.07;;;5.20;99.90;;;;;;5090680;28;20600;-77
2022/03/22 06:00:52;;;;;;;1.40;1.37;;;5.20;99.90;;;;;;5092376;28;20191;-77
2022/03/22 06:03:18;;;;;;;1.00;1.00;;;5.20;99.90;;;;;;5091822;28;20257;-78
2022/03/22 06:05:43;;;;;;;1.43;1.43;;;5.30;99.90;;;;;;5081481;28;20200;-76
2022/03/22 06:08:09;;;;;;;4.03;2.70;;;5.30;99.90;;;;;;5086899;28;20180;-77
2022/03/22 06:10:35;;;;;;;2.63;2.07;;;5.40;99.90;;;;;;5091891;28;20212;-79
2022/03/22 06:13:01;;;;;;;2.47;2.37;;;5.50;99.90;;;;;;5077847;28;20184;-77
2022/03/22 06:15:29;;;;;;;4.07;3.77;;;5.70;99.90;;;;;;5096438;28;20270;-77
2022/03/22 06:18:06;;;;;;;2.03;1.93;;;5.70;99.90;;;;;;5095807;28;20554;-77
2022/03/22 06:20:33;;;;;;;5.13;3.90;;;5.80;99.90;;;;;;5085344;28;20185;-76
2022/03/22 06:23:00;;;;;;;3.13;2.37;;;5.80;99.90;;;;;;5077347;28;20651;-76
2022/03/22 06:25:26;;;;;;;2.23;2.00;;;5.90;99.90;;;;;;5094834;28;20272;-77
2022/03/22 06:27:54;;;;;;;2.37;2.17;;;6.00;99.90;;;;;;5095806;28;20245;-77
2022/03/22 06:30:21;;;;;;;3.07;2.83;;;6.00;99.90;;;;;;5095480;28;20709;-77
2022/03/22 06:33:16;;;;;;;2.13;1.17;;;6.00;99.90;;;;;;5094249;28;20550;-77
2022/03/22 06:35:43;;;;;;;6.13;3.23;;;6.10;99.90;;;;;;5091668;28;20183;-77
2022/03/22 06:38:09;;;;;;;0.77;0.77;;;6.10;99.90;;;;;;5095241;28;20164;-78
2022/03/22 06:40:37;;;;;;;5.73;3.53;;;6.20;99.90;;;;;;5094462;28;20667;-78
2022/03/22 06:43:04;;;;;;;3.80;3.00;;;6.40;99.90;;;;;;5095965;28;20183;-78
2022/03/22 06:45:30;;;;;;;2.30;1.87;;;6.50;99.90;;;;;;5096489;28;20187;-77
2022/03/22 06:47:56;;;;;;;2.10;2.00;;;6.60;99.90;;;;;;5096090;28;20527;-77
2022/03/22 06:50:21;;;;;;;2.70;2.60;;;6.60;99.90;;;;;;5094839;28;20310;-77
2022/03/22 06:52:47;;;;;;;1.60;1.50;;;6.70;99.90;;;;;;5095305;28;20681;-78
2022/03/22 06:55:16;;;;;;;3.13;2.93;;;6.80;99.90;;;;;;5095912;28;20190;-77
2022/03/22 06:57:42;;;;;;;2.93;2.63;;;6.90;99.90;;;;;;5095343;28;20163;-77
2022/03/22 07:00:10;;;;;;;3.97;3.33;;;7.00;99.90;;;;;;5094637;28;20203;-79
2022/03/22 07:02:39;;;;;;;4.63;4.30;;;7.20;99.90;;;;;;5095719;28;20597;-80
2022/03/22 07:05:06;;;;;;;4.20;3.83;;;7.30;99.90;;;;;;5091167;28;20259;-78
2022/03/22 07:07:31;;;;;;;3.00;2.80;;;7.40;99.90;;;;;;5084171;28;20562;-79
2022/03/22 07:09:57;;;;;;;7.30;5.27;;;7.60;99.90;;;;;;5095717;28;20207;-78
2022/03/22 07:12:22;;;;;;;2.30;2.20;;;7.70;99.90;;;;;;5092807;28;20186;-77
2022/03/22 07:14:48;;;;;;;3.77;2.63;;;7.80;99.90;;;;;;5096014;28;20183;-77
2022/03/22 07:17:14;;;;;;;3.13;2.93;;;7.90;99.90;;;;;;5095069;28;20275;-78
2022/03/22 07:19:40;;;;;;;6.20;3.53;;;8.00;99.90;;;;;;5095359;28;20278;-76
2022/03/22 07:22:06;;;;;;;7.10;3.57;;;8.10;99.90;;;;;;5096100;28;20603;-78
2022/03/22 07:24:33;;;;;;;4.33;1.43;;;8.30;99.90;;;;;;5093453;28;20232;-79
2022/03/22 07:26:59;;;;;;;6.67;5.83;;;8.40;99.90;;;;;;5090493;28;20172;-77
2022/03/22 07:29:24;;;;;;;3.63;2.83;;;8.60;99.90;;;;;;5089856;28;20200;-77
2022/03/22 07:31:51;;;;;;;1.40;1.40;;;8.70;99.90;;;;;;5073819;28;20581;-77
2022/03/22 07:34:19;;;;;;;2.07;1.97;;;8.80;99.90;;;;;;5089686;28;20263;-76
2022/03/22 07:36:46;;;;;;;1.97;1.87;;;8.80;99.90;;;;;;5092659;28;20565;-76
2022/03/22 07:39:13;;;;;;;2.17;2.07;;;8.90;99.90;;;;;;5077412;28;20547;-76
2022/03/22 07:41:43;;;;;;;2.20;2.03;;;9.10;99.90;;;;;;5082543;28;20211;-76
2022/03/22 07:44:12;;;;;;;3.53;1.67;;;9.20;99.90;;;;;;5093549;28;20197;-77
2022/03/22 07:46:42;;;;;;;3.77;2.03;;;9.20;99.90;;;;;;5082212;28;20259;-77
2022/03/22 07:54:44;;;;;;;3.43;3.20;;;9.60;99.90;;;;;;5073255;28;20191;-74
2022/03/22 07:57:09;;;;;;;3.03;2.80;;;9.80;99.90;;;;;;5088904;28;20180;-75
2022/03/22 07:59:35;;;;;;;2.20;1.90;;;10.00;99.90;;;;;;5093597;28;20625;-77
2022/03/22 08:02:02;;;;;;;3.50;2.30;;;10.10;99.90;;;;;;5092684;28;20585;-78
2022/03/22 08:04:27;;;;;;;7.80;3.37;;;10.20;99.90;;;;;;5091983;28;20244;-77
2022/03/22 08:06:53;;;;;;;2.20;2.10;;;10.40;99.90;;;;;;5076384;28;20187;-77
2022/03/22 08:09:19;;;;;;;2.40;1.93;;;10.50;99.90;;;;;;5091316;28;20253;-77
2022/03/22 08:11:45;;;;;;;0.47;0.47;;;10.70;99.90;;;;;;5083956;28;20257;-77
2022/03/22 08:14:10;;;;;;;4.33;1.33;;;10.90;99.90;;;;;;5084507;28;20657;-77
2022/03/22 08:16:40;;;;;;;4.27;1.87;;;11.00;99.90;;;;;;5092357;28;20229;-77
2022/03/22 08:19:07;;;;;;;8.03;4.23;;;11.10;99.90;;;;;;5093400;28;20213;-77
2022/03/22 08:21:33;;;;;;;1.63;1.53;;;11.20;99.90;;;;;;5092433;28;20200;-78
2022/03/22 08:23:59;;;;;;;1.80;1.70;;;11.40;99.90;;;;;;5091606;28;20254;-77
2022/03/22 08:26:25;;;;;;;3.30;2.63;;;11.40;99.90;;;;;;5087109;28;20639;-78
2022/03/22 08:28:50;;;;;;;4.77;3.80;;;11.40;99.90;;;;;;5071963;28;20811;-74
2022/03/22 08:31:16;;;;;;;3.87;2.67;;;11.60;99.90;;;;;;5076819;28;20681;-74
2022/03/22 08:33:41;;;;;;;6.53;5.17;;;11.80;99.90;;;;;;5092713;28;20179;-78
2022/03/22 08:36:07;;;;;;;4.97;3.10;;;12.00;99.90;;;;;;5093503;28;20705;-77
2022/03/22 08:38:33;;;;;;;4.43;3.03;;;12.10;99.90;;;;;;5080090;28;20196;-77
2022/03/22 08:40:59;;;;;;;10.83;3.47;;;12.30;99.90;;;;;;5077335;28;20205;-76
2022/03/22 08:43:25;;;;;;;7.50;4.77;;;12.40;99.90;;;;;;5090963;28;20630;-77
2022/03/22 08:45:52;;;;;;;8.13;4.57;;;12.40;99.90;;;;;;5072872;28;20175;-77
2022/03/22 08:48:18;;;;;;;4.73;4.13;;;12.50;99.90;;;;;;5072061;28;20186;-76
2022/03/22 08:50:45;;;;;;;9.70;5.17;;;12.60;99.90;;;;;;5091100;28;20694;-77
2022/03/22 08:53:13;;;;;;;3.50;2.97;;;12.60;99.90;;;;;;5092096;28;20179;-77
2022/03/22 08:55:39;;;;;;;7.23;4.03;;;12.80;99.90;;;;;;5090925;28;20214;-76
2022/03/22 08:58:06;;;;;;;7.33;3.80;;;12.90;99.90;;;;;;5092094;28;20218;-78
2022/03/22 09:00:33;;;;;;;10.33;5.70;;;13.00;99.90;;;;;;5092276;28;20196;-75
2022/03/22 09:02:59;;;;;;;8.13;4.10;;;13.10;99.90;;;;;;5091746;28;20190;-76
2022/03/22 09:08:09;;;;;;;6.50;5.33;;;13.40;99.90;;;;;;5087223;28;20668;-78
2022/03/22 09:10:35;;;;;;;8.93;3.90;;;13.40;99.90;;;;;;5091184;28;20219;-77
2022/03/22 09:13:01;;;;;;;3.23;2.93;;;13.50;99.90;;;;;;5073507;28;20394;-77
2022/03/22 09:15:28;;;;;;;2.50;2.30;;;13.50;99.90;;;;;;5091741;28;20328;-75
2022/03/22 09:17:55;;;;;;;5.37;4.43;;;13.70;99.90;;;;;;5091781;28;20187;-77
2022/03/22 09:20:22;;;;;;;3.77;3.27;;;13.80;99.90;;;;;;5091887;28;20294;-77
2022/03/22 09:22:49;;;;;;;6.27;3.83;;;13.90;99.90;;;;;;5091399;28;20193;-77
2022/03/22 09:25:16;;;;;;;6.07;4.30;;;13.90;99.90;;;;;;5091890;28;20210;-77
2022/03/22 09:27:42;;;;;;;5.30;3.40;;;14.10;99.90;;;;;;5091463;28;20183;-77
2022/03/22 09:30:09;;;;;;;5.03;4.13;;;14.20;99.90;;;;;;5091455;28;20801;-74
2022/03/22 09:32:36;;;;;;;6.37;4.70;;;14.40;99.90;;;;;;5084149;28;20185;-77
2022/03/22 09:35:06;;;;;;;1.70;1.60;;;14.40;99.90;;;;;;5082093;28;20659;-75
2022/03/22 09:37:35;;;;;;;9.13;4.27;;;14.70;99.90;;;;;;5087569;28;20263;-77
2022/03/22 09:40:01;;;;;;;5.23;4.73;;;14.60;99.90;;;;;;5071478;28;20205;-78
2022/03/22 09:42:30;;;;;;;9.70;4.37;;;14.60;99.90;;;;;;5088866;28;20180;-77
2022/03/22 09:45:00;;;;;;;7.50;4.77;;;14.80;99.90;;;;;;5091570;28;20593;-77
2022/03/22 09:47:26;;;;;;;11.57;4.10;;;14.90;99.90;;;;;;5089491;28;20187;-78
2022/03/22 09:49:54;;;;;;;4.60;4.17;;;15.10;99.90;;;;;;5089882;28;20212;-77
2022/03/22 09:52:20;;;;;;;8.33;2.87;;;15.20;99.90;;;;;;5091151;28;20186;-77
2022/03/22 09:54:46;;;;;;;5.27;4.70;;;15.10;99.90;;;;;;5091444;28;20263;-77
2022/03/22 09:57:12;;;;;;;7.63;3.40;;;15.20;99.90;;;;;;5089865;28;20267;-78
2022/03/22 09:59:37;;;;;;;6.93;3.77;;;15.30;99.90;;;;;;5091148;28;20205;-78
2022/03/22 10:02:04;;;;;;;4.00;3.50;;;15.50;99.90;;;;;;5090865;28;20252;-77
2022/03/22 10:04:38;;;;;;;4.17;2.13;;;15.70;99.90;;;;;;5071721;28;20188;-77
2022/03/22 10:07:06;;;;;;;8.83;4.17;;;15.60;99.90;;;;;;5070979;28;20675;-77
2022/03/22 10:09:33;;;;;;;7.13;4.57;;;15.80;99.90;;;;;;5071015;28;20203;-76
2022/03/22 10:12:03;;;;;;;5.63;5.10;;;15.90;99.90;;;;;;5080919;28;20298;-76
2022/03/22 10:14:47;;;;;;;5.50;4.20;;;15.90;99.90;;;;;;5079846;28;20230;-79
2022/03/22 10:17:20;;;;;;;4.20;2.00;;;15.90;99.90;;;;;;5080951;28;20198;-77
2022/03/22 10:19:51;;;;;;;6.90;2.37;;;16.10;99.90;;;;;;5088743;28;20221;-77
2022/03/22 10:22:27;;;;;;;9.03;3.97;;;16.10;99.90;;;;;;5089586;28;20192;-77
2022/03/22 10:25:01;;;;;;;6.13;4.20;;;16.30;98.70;;;;;;5091240;28;20189;-75
2022/03/22 10:27:35;;;;;;;3.73;1.67;;;16.30;97.60;;;;;;5090972;28;20703;-77
2022/03/22 10:30:06;;;;;;;9.83;3.33;;;16.40;96.20;;;;;;5090776;28;20211;-77
2022/03/22 10:32:36;;;;;;;2.17;2.07;;;16.50;95.10;;;;;;5090561;28;20178;-79
2022/03/22 10:35:12;;;;;;;2.97;2.13;;;16.50;92.80;;;;;;5089847;28;20222;-77
2022/03/22 10:37:41;;;;;;;3.73;3.37;;;16.40;94.30;;;;;;5089573;28;20546;-77
2022/03/22 10:40:23;;;;;;;7.70;3.63;;;16.70;97.80;;;;;;5090996;28;20213;-77
2022/03/22 10:43:03;;;;;;;6.00;4.27;;;16.90;93.90;;;;;;5082296;28;20197;-79
2022/03/22 10:45:40;;;;;;;4.37;3.00;;;17.20;93.00;;;;;;5089245;28;20184;-78
2022/03/22 10:48:06;;;;;;;5.23;3.47;;;17.70;93.20;;;;;;5090765;28;20211;-76
2022/03/22 10:50:35;;;;;;;1.53;1.43;;;18.10;94.40;;;;;;5090690;28;20407;-75
2022/03/22 10:53:01;;;;;;;3.83;3.50;;;18.30;86.70;;;;;;5090296;28;20195;-78
2022/03/22 10:55:27;;;;;;;6.67;3.13;;;18.70;82.60;;;;;;5090608;28;20180;-78
2022/03/22 10:57:56;;;;;;;1.80;1.63;;;18.80;91.40;;;;;;5090025;28;20535;-77
2022/03/22 11:00:23;;;;;;;7.77;4.30;;;18.80;81.30;;;;;;5090532;28;20241;-77
2022/03/22 11:02:52;;;;;;;4.00;2.27;;;18.80;73.90;;;;;;5087776;28;20192;-77
2022/03/22 11:05:22;;;;;;;3.50;2.67;;;18.90;76.60;;;;;;5087589;28;20183;-75
2022/03/22 11:07:52;;;;;;;3.43;3.23;;;18.90;80.20;;;;;;5084937;28;20180;-78
2022/03/22 11:10:29;;;;;;;6.00;2.67;;;19.00;78.20;;;;;;5093891;28;20217;-76
2022/03/22 11:12:57;;;;;;;7.83;2.53;;;19.30;75.80;;;;;;5077623;28;20184;-78
2022/03/22 11:15:24;;;;;;;5.47;3.27;;;19.60;77.60;;;;;;5093573;28;20673;-77
2022/03/22 11:17:51;;;;;;;3.27;2.97;;;20.20;72.90;;;;;;5092660;28;20275;-75
2022/03/22 11:20:17;;;;;;;7.43;4.37;;;20.80;64.20;;;;;;5092763;28;20697;-78
2022/03/22 11:22:56;;;;;;;3.40;2.23;;;21.20;66.90;;;;;;5093913;28;20262;-78
2022/03/22 11:25:34;;;;;;;3.97;2.47;;;21.10;63.40;;;;;;5093799;28;20174;-78
2022/03/22 11:28:11;;;;;;;5.50;2.60;;;21.00;66.20;;;;;;5093746;28;20607;-78
2022/03/22 11:30:40;;;;;;;10.47;3.70;;;21.60;63.00;;;;;;5093064;28;20689;-78
2022/03/22 11:35:59;;;;;;;9.33;3.17;;;22.50;57.20;;;;;;5034807;28;20668;-76
2022/03/22 11:38:44;;;;;;;5.80;3.27;;;22.30;59.70;;;;;;5093435;28;20176;-75
2022/03/22 11:44:24;;;;;;;2.97;2.70;;;25.20;49.90;;;;;;5093900;28;20205;-78
2022/03/22 11:47:07;;;;;;;6.00;3.17;;;25.30;51.30;;;;;;5093116;28;20267;-78
2022/03/22 11:49:53;;;;;;;3.03;2.57;;;25.40;46.60;;;;;;5093252;28;20195;-77
2022/03/22 11:52:24;;;;;;;3.80;2.73;;;24.80;53.20;;;;;;5092946;28;20176;-78
2022/03/22 11:55:00;;;;;;;2.13;2.03;;;24.40;52.70;;;;;;5093299;28;20196;-77
2022/03/22 11:57:27;;;;;;;3.43;2.17;;;24.60;51.30;;;;;;5092964;28;20176;-77
2022/03/22 11:59:54;;;;;;;3.77;2.53;;;24.90;49.20;;;;;;5092988;28;20287;-77
2022/03/22 12:02:26;;;;;;;2.27;2.10;;;25.80;47.40;;;;;;5092393;28;20180;-78
2022/03/22 12:04:55;;;;;;;9.90;3.13;;;27.40;44.10;;;;;;5090241;28;20694;-77
2022/03/22 12:07:41;;;;;;;1.83;1.73;;;27.50;44.30;;;;;;5081673;28;20310;-77
2022/03/22 12:10:12;;;;;;;2.33;2.03;;;29.20;40.20;;;;;;5092572;28;20291;-77
2022/03/22 12:12:48;;;;;;;2.50;1.80;;;30.30;38.40;;;;;;5076743;28;20180;-78
2022/03/22 12:15:18;;;;;;;3.43;2.63;;;28.90;40.10;;;;;;5079823;28;20655;-77
2022/03/22 12:17:44;;;;;;;6.90;3.23;;;27.60;41.30;;;;;;5092598;28;20207;-78
2022/03/22 12:20:15;;;;;;;3.90;2.90;;;26.50;42.30;;;;;;5085814;28;20230;-77
2022/03/22 12:22:53;;;;;;;3.77;3.33;;;25.90;43.00;;;;;;5087120;28;20660;-77
2022/03/22 12:25:21;;;;;;;3.50;2.97;;;27.80;40.00;;;;;;5092424;28;20248;-77
2022/03/22 12:28:02;;;;;;;4.13;2.67;;;27.30;41.10;;;;;;5092664;28;20277;-77
2022/03/22 12:30:33;;;;;;;3.37;3.07;;;28.20;38.30;;;;;;5091554;28;20624;-76
2022/03/22 12:33:02;;;;;;;4.27;3.33;;;28.90;39.50;;;;;;5092212;28;20180;-77
2022/03/22 12:35:29;;;;;;;2.50;2.30;;;28.10;39.10;;;;;;5092237;28;20176;-76
2022/03/22 12:37:57;;;;;;;3.80;2.73;;;25.20;42.00;;;;;;5091016;28;20240;-76
2022/03/22 12:40:23;;;;;;;3.83;2.20;;;23.80;43.50;;;;;;5092323;28;20273;-77
2022/03/22 12:42:50;;;;;;;3.13;2.13;;;24.60;46.00;;;;;;5091872;28;20186;-76
2022/03/22 12:45:18;;;;;;;2.63;2.43;;;24.10;43.50;;;;;;5091987;28;20179;-76
2022/03/22 12:47:44;;;;;;;5.60;3.50;;;24.00;44.80;;;;;;5092413;28;20266;-76
2022/03/22 12:50:12;;;;;;;4.47;3.27;;;24.10;45.20;;;;;;5090464;28;20207;-76
2022/03/22 12:52:38;;;;;;;2.80;2.10;;;23.70;47.50;;;;;;5091776;28;20539;-76
2022/03/22 12:55:07;;;;;;;2.17;1.97;;;23.60;45.70;;;;;;5091844;28;20180;-77
2022/03/22 12:57:34;;;;;;;5.33;3.63;;;24.40;44.70;;;;;;5091465;28;20322;-77
2022/03/22 13:00:00;;;;;;;5.67;2.87;;;26.50;38.20;;;;;;5090602;28;20227;-75
2022/03/22 13:02:26;;;;;;;2.77;2.10;;;26.70;38.50;;;;;;5091874;28;20210;-77
2022/03/22 13:04:53;;;;;;;2.03;1.90;;;27.60;40.40;;;;;;5086979;28;20188;-77
2022/03/22 13:07:21;;;;;;;3.27;3.00;;;25.90;40.90;;;;;;5080205;28;20267;-75
2022/03/22 13:12:34;;;;;;;4.20;3.07;;;25.40;42.00;;;;;;5078532;28;20180;-77
2022/03/22 13:15:13;;;;;;;3.77;2.63;;;24.50;42.60;;;;;;5090283;28;20254;-77
2022/03/22 13:17:45;;;;;;;6.93;3.60;;;24.50;42.60;;;;;;5092159;28;20247;-76
2022/03/22 13:20:21;;;;;;;1.93;1.83;;;25.10;42.00;;;;;;5090903;28;20227;-77
2022/03/22 13:23:09;;;;;;;8.30;3.20;;;25.50;42.00;;;;;;5090543;28;20205;-77
2022/03/22 13:25:40;;;;;;;3.20;2.70;;;27.20;38.70;;;;;;5092113;28;20639;-78
2022/03/22 13:28:16;;;;;;;4.53;3.53;;;28.20;36.30;;;;;;5091423;28;20194;-78
2022/03/22 13:30:44;;;;;;;15.03;3.13;;;30.50;38.10;;;;;;5090887;28;20268;-77
2022/03/22 13:33:23;;;;;;;4.10;2.20;;;30.50;34.70;;;;;;5090010;28;20191;-77